Time;durP1;ratioP1;P1;durP2;ratioP2;P2;SDS_P1;SDS_P2;PMS_P1;PMS_P2;Temp;Humidity;BMP_temperature;BMP_pressure;BME280_temperature;BME280_humidity;BME280_pressure;Samples;Min_cycle;Max_cycle;Signal;HPM_P1;HPM_P2
2024/03/26 00:02:02;;;;;;;12.00;6.03;;;6.30;99.90;;;;;;5045487;28;20191;-66
2024/03/26 00:04:28;;;;;;;14.98;6.35;;;6.40;99.90;;;;;;5044875;28;20670;-66
2024/03/26 00:06:54;;;;;;;11.35;5.70;;;6.30;99.90;;;;;;5045001;28;20199;-67
2024/03/26 00:09:19;;;;;;;13.02;6.05;;;6.40;99.90;;;;;;5045125;28;20202;-68
2024/03/26 00:11:45;;;;;;;13.13;6.15;;;6.40;99.90;;;;;;5045338;28;20203;-66
2024/03/26 00:14:11;;;;;;;12.35;5.88;;;6.40;99.90;;;;;;5044481;28;20191;-65
2024/03/26 00:16:37;;;;;;;12.90;5.88;;;6.40;99.90;;;;;;5044850;28;20227;-66
2024/03/26 00:19:02;;;;;;;13.07;6.40;;;6.40;99.90;;;;;;5043288;28;20196;-66
2024/03/26 00:21:28;;;;;;;14.27;5.93;;;6.30;99.90;;;;;;5044781;28;20270;-66
2024/03/26 00:23:54;;;;;;;11.63;5.97;;;6.40;99.90;;;;;;5044775;28;20721;-69
2024/03/26 00:26:19;;;;;;;18.63;6.53;;;6.40;99.90;;;;;;5044183;28;20179;-66
2024/03/26 00:28:45;;;;;;;14.50;6.82;;;6.40;99.90;;;;;;5043927;28;20663;-67
2024/03/26 00:31:11;;;;;;;13.82;5.85;;;6.40;99.90;;;;;;5045593;28;20633;-66
2024/03/26 00:33:36;;;;;;;12.35;6.03;;;6.40;99.90;;;;;;5044668;28;20203;-67
2024/03/26 00:36:03;;;;;;;13.10;6.10;;;6.40;99.90;;;;;;5044464;28;20199;-66
2024/03/26 00:38:28;;;;;;;15.68;6.22;;;6.30;99.90;;;;;;5044350;28;20657;-66
2024/03/26 00:40:54;;;;;;;11.65;5.75;;;6.30;99.90;;;;;;5044123;28;20199;-67
2024/03/26 00:43:20;;;;;;;13.80;5.75;;;6.30;99.90;;;;;;5044377;28;20260;-66
2024/03/26 00:45:46;;;;;;;11.63;6.10;;;6.30;99.90;;;;;;5044495;28;20206;-67
2024/03/26 00:48:12;;;;;;;16.42;6.38;;;6.30;99.90;;;;;;5044250;28;20195;-67
2024/03/26 00:50:38;;;;;;;14.20;6.13;;;6.20;99.90;;;;;;5043163;28;20280;-67
2024/03/26 00:53:03;;;;;;;14.30;5.80;;;6.20;99.90;;;;;;5043056;28;20614;-66
2024/03/26 00:55:29;;;;;;;15.40;6.53;;;6.20;99.90;;;;;;5042393;28;20733;-68
2024/03/26 00:57:55;;;;;;;15.57;6.10;;;6.20;99.90;;;;;;5059350;28;21685;-67
2024/03/26 01:00:21;;;;;;;17.27;6.35;;;6.20;99.90;;;;;;5044790;28;20264;-67
2024/03/26 01:02:46;;;;;;;14.32;6.15;;;6.10;99.90;;;;;;5043700;28;20245;-65
2024/03/26 01:05:12;;;;;;;14.93;6.00;;;6.10;99.90;;;;;;5043767;28;20198;-68
2024/03/26 01:07:38;;;;;;;14.80;6.38;;;6.10;99.90;;;;;;5044043;28;20188;-67
2024/03/26 01:10:04;;;;;;;14.20;6.10;;;6.10;99.90;;;;;;5044102;28;20648;-67
2024/03/26 01:12:32;;;;;;;18.58;6.57;;;6.10;99.90;;;;;;5044428;28;20195;-66
2024/03/26 01:14:58;;;;;;;13.45;6.22;;;6.00;99.90;;;;;;5059485;28;20244;-66
2024/03/26 01:17:24;;;;;;;15.23;6.63;;;6.00;99.90;;;;;;5043977;28;20223;-66
2024/03/26 01:19:50;;;;;;;19.58;6.47;;;6.00;99.90;;;;;;5043963;28;20604;-67
2024/03/26 01:22:15;;;;;;;14.15;6.53;;;6.00;99.90;;;;;;5043665;28;20208;-67
2024/03/26 01:24:41;;;;;;;14.23;6.63;;;6.00;99.90;;;;;;5043815;28;20262;-67
2024/03/26 01:27:07;;;;;;;16.13;6.55;;;5.90;99.90;;;;;;5044148;28;20195;-65
2024/03/26 01:29:32;;;;;;;13.10;6.90;;;6.00;99.90;;;;;;5044357;28;20188;-67
2024/03/26 01:31:58;;;;;;;15.35;6.30;;;5.90;99.90;;;;;;5044073;28;20659;-66
2024/03/26 01:34:24;;;;;;;14.27;6.20;;;5.90;99.90;;;;;;5043365;28;20183;-66
2024/03/26 01:36:49;;;;;;;18.50;7.15;;;5.90;99.90;;;;;;5042847;28;20686;-66
2024/03/26 01:39:15;;;;;;;14.95;6.20;;;5.80;99.90;;;;;;5043035;28;20312;-67
2024/03/26 01:41:42;;;;;;;16.75;6.38;;;5.80;99.90;;;;;;5043729;28;20218;-67
2024/03/26 01:44:08;;;;;;;14.52;6.95;;;5.80;99.90;;;;;;5043097;28;20487;-66
2024/03/26 01:46:36;;;;;;;17.23;6.97;;;5.80;99.90;;;;;;5041907;28;20278;-67
2024/03/26 01:49:07;;;;;;;17.25;6.85;;;5.70;99.90;;;;;;5042990;28;20204;-67
2024/03/26 01:51:34;;;;;;;16.75;6.95;;;5.70;99.90;;;;;;5043766;28;20184;-66
2024/03/26 01:54:01;;;;;;;16.75;7.20;;;5.70;99.90;;;;;;5042618;28;20215;-67
2024/03/26 01:56:28;;;;;;;19.25;6.97;;;5.60;99.90;;;;;;5057454;28;20199;-67
2024/03/26 01:58:55;;;;;;;18.27;7.38;;;5.60;99.90;;;;;;5042720;28;20277;-67
2024/03/26 02:01:22;;;;;;;17.42;7.07;;;5.50;99.90;;;;;;5043243;28;20257;-65
2024/03/26 02:03:49;;;;;;;18.63;7.05;;;5.50;99.90;;;;;;5042600;28;20259;-67
2024/03/26 02:06:15;;;;;;;13.98;6.93;;;5.50;99.90;;;;;;5042564;28;20179;-67
2024/03/26 02:08:42;;;;;;;16.75;6.68;;;5.50;99.90;;;;;;5042600;28;20556;-66
2024/03/26 02:11:08;;;;;;;17.05;6.85;;;5.40;99.90;;;;;;5042890;28;20187;-67
2024/03/26 02:13:34;;;;;;;13.50;6.68;;;5.40;99.90;;;;;;5057767;28;20195;-67
2024/03/26 02:15:59;;;;;;;14.52;7.40;;;5.40;99.90;;;;;;5043029;28;20191;-67
2024/03/26 02:18:25;;;;;;;16.67;7.43;;;5.40;99.90;;;;;;5042778;28;20231;-67
2024/03/26 02:20:51;;;;;;;19.33;7.75;;;5.30;99.90;;;;;;5042694;28;20671;-67
2024/03/26 02:23:21;;;;;;;13.77;6.97;;;5.30;99.90;;;;;;5039648;28;20218;-66
2024/03/26 02:25:46;;;;;;;13.82;6.60;;;5.30;99.90;;;;;;5042185;28;20663;-67
2024/03/26 02:28:12;;;;;;;16.50;6.78;;;5.30;99.90;;;;;;5043214;28;20274;-66
2024/03/26 02:30:38;;;;;;;13.25;7.15;;;5.30;99.90;;;;;;5042557;28;20651;-66
2024/03/26 02:33:04;;;;;;;14.63;6.75;;;5.30;99.90;;;;;;5042834;28;20183;-67
2024/03/26 02:35:29;;;;;;;14.70;7.32;;;5.30;99.90;;;;;;5041814;28;20500;-66
2024/03/26 02:37:55;;;;;;;14.63;6.70;;;5.20;99.90;;;;;;5042509;28;20194;-66
2024/03/26 02:40:21;;;;;;;16.98;6.78;;;5.20;99.90;;;;;;5042714;28;20514;-67
2024/03/26 02:42:47;;;;;;;14.95;6.70;;;5.30;99.90;;;;;;5042358;28;20198;-67
2024/03/26 02:45:14;;;;;;;15.45;6.60;;;5.20;99.90;;;;;;5042752;28;20206;-66
2024/03/26 02:47:40;;;;;;;13.82;6.63;;;5.20;99.90;;;;;;5041354;28;20669;-68
2024/03/26 02:50:06;;;;;;;11.63;6.30;;;5.30;99.90;;;;;;5057182;28;20336;-66
2024/03/26 02:52:32;;;;;;;19.27;6.93;;;5.20;99.90;;;;;;5041944;28;20252;-66
2024/03/26 02:54:57;;;;;;;14.75;6.55;;;5.20;99.90;;;;;;5040621;28;20277;-67
2024/03/26 02:57:23;;;;;;;18.33;6.47;;;5.20;99.90;;;;;;5042269;28;20202;-66
2024/03/26 02:59:49;;;;;;;13.73;6.65;;;5.20;99.90;;;;;;5041987;28;20202;-66
2024/03/26 03:02:14;;;;;;;16.52;6.82;;;5.20;99.90;;;;;;5041952;28;20187;-67
2024/03/26 03:04:40;;;;;;;12.27;6.45;;;5.20;99.90;;;;;;5040961;28;21132;-67
2024/03/26 03:07:06;;;;;;;12.32;6.47;;;5.20;99.90;;;;;;5041236;28;20187;-67
2024/03/26 03:09:32;;;;;;;15.35;6.53;;;5.20;99.90;;;;;;5041521;28;20179;-66
2024/03/26 03:11:57;;;;;;;11.52;5.97;;;5.20;99.90;;;;;;5056215;28;20191;-66
2024/03/26 03:14:23;;;;;;;12.88;6.28;;;5.20;99.90;;;;;;5041549;28;20195;-66
2024/03/26 03:16:49;;;;;;;16.40;6.88;;;5.10;99.90;;;;;;5040160;28;21188;-66
2024/03/26 03:19:14;;;;;;;16.23;6.30;;;5.10;99.90;;;;;;5040098;28;20383;-66
2024/03/26 03:21:40;;;;;;;17.58;7.13;;;5.10;99.90;;;;;;5041703;28;20222;-67
2024/03/26 03:24:06;;;;;;;14.07;6.40;;;5.10;99.90;;;;;;5041760;28;20222;-67
2024/03/26 03:26:32;;;;;;;13.85;6.30;;;5.10;99.90;;;;;;5041599;28;20179;-67
2024/03/26 03:28:57;;;;;;;12.45;6.50;;;5.20;99.90;;;;;;5042206;28;20198;-66
2024/03/26 03:31:23;;;;;;;15.52;6.35;;;5.20;99.90;;;;;;5040800;28;20344;-67
2024/03/26 03:33:49;;;;;;;17.52;6.40;;;5.20;99.90;;;;;;5041796;28;20206;-66
2024/03/26 03:36:15;;;;;;;12.68;6.35;;;5.20;99.90;;;;;;5042247;28;20216;-67
2024/03/26 03:38:40;;;;;;;17.65;6.38;;;5.20;99.90;;;;;;5042345;28;20207;-67
2024/03/26 03:41:06;;;;;;;12.23;6.55;;;5.20;99.90;;;;;;5039268;28;20195;-66
2024/03/26 03:43:32;;;;;;;15.80;6.75;;;5.20;99.90;;;;;;5041826;28;20655;-66
2024/03/26 03:45:57;;;;;;;15.13;5.97;;;5.20;99.90;;;;;;5041179;28;20198;-66
2024/03/26 03:48:23;;;;;;;11.93;5.93;;;5.20;99.90;;;;;;5041408;28;20191;-67
2024/03/26 03:50:49;;;;;;;17.80;6.43;;;5.10;99.90;;;;;;5041991;28;20228;-66
2024/03/26 03:53:15;;;;;;;11.82;5.97;;;5.10;99.90;;;;;;5040789;28;20191;-66
2024/03/26 03:55:41;;;;;;;9.82;6.22;;;5.20;99.90;;;;;;5040854;28;20643;-66
2024/03/26 03:58:07;;;;;;;13.93;5.93;;;5.10;99.90;;;;;;5056911;28;20199;-66
2024/03/26 04:00:33;;;;;;;16.13;6.10;;;5.10;99.90;;;;;;5023478;28;20189;-66
2024/03/26 04:02:59;;;;;;;13.02;6.15;;;5.10;99.90;;;;;;5040081;28;20187;-65
2024/03/26 04:05:24;;;;;;;13.55;5.93;;;5.10;99.90;;;;;;5040555;28;20191;-67
2024/03/26 04:07:50;;;;;;;12.25;5.68;;;5.10;99.90;;;;;;5041712;28;20195;-66
2024/03/26 04:10:16;;;;;;;18.15;6.00;;;5.10;99.90;;;;;;5040778;28;20241;-67
2024/03/26 04:12:42;;;;;;;18.77;6.18;;;5.00;99.90;;;;;;5041026;28;20179;-66
2024/03/26 04:15:09;;;;;;;14.05;5.93;;;5.00;99.90;;;;;;5041839;28;20715;-66
2024/03/26 04:17:35;;;;;;;19.25;6.03;;;5.00;99.90;;;;;;5039021;28;20669;-65
2024/03/26 04:20:00;;;;;;;15.57;6.10;;;5.00;99.90;;;;;;5040789;28;20274;-67
2024/03/26 04:22:26;;;;;;;13.55;5.82;;;5.00;99.90;;;;;;5041330;28;20252;-66
2024/03/26 04:24:52;;;;;;;16.85;6.35;;;5.00;99.90;;;;;;5041188;28;20211;-66
2024/03/26 04:27:18;;;;;;;13.82;6.20;;;5.00;99.90;;;;;;5041991;28;20188;-66
2024/03/26 04:29:44;;;;;;;13.93;6.50;;;5.00;99.90;;;;;;5044593;28;21127;-66
2024/03/26 04:32:09;;;;;;;12.75;6.15;;;5.00;99.90;;;;;;5044041;28;20335;-66
2024/03/26 04:34:35;;;;;;;12.70;6.18;;;5.00;99.90;;;;;;5044275;28;20213;-67
2024/03/26 04:37:02;;;;;;;11.30;6.30;;;5.00;99.90;;;;;;5042112;28;20618;-65
2024/03/26 04:39:28;;;;;;;11.68;5.68;;;4.90;99.90;;;;;;5045055;28;20541;-66
2024/03/26 04:41:54;;;;;;;12.73;5.65;;;5.00;99.90;;;;;;5042881;28;20195;-66
2024/03/26 04:44:20;;;;;;;16.83;6.70;;;5.00;99.90;;;;;;5044617;28;20210;-66
2024/03/26 04:46:46;;;;;;;16.13;7.05;;;5.00;99.90;;;;;;5041925;28;20187;-66
2024/03/26 04:49:12;;;;;;;14.20;6.43;;;5.00;99.90;;;;;;5044401;28;20206;-66
2024/03/26 04:51:38;;;;;;;12.95;5.88;;;5.00;99.90;;;;;;5043901;28;20180;-67
2024/03/26 04:54:04;;;;;;;13.52;6.07;;;5.00;99.90;;;;;;5043907;28;20191;-66
2024/03/26 04:56:30;;;;;;;14.13;5.32;;;5.00;99.90;;;;;;5044371;28;20187;-66
2024/03/26 04:58:56;;;;;;;13.20;5.78;;;5.00;99.90;;;;;;5044003;28;20198;-65
2024/03/26 05:01:21;;;;;;;15.85;6.30;;;4.90;99.90;;;;;;5044634;28;20206;-67
2024/03/26 05:03:47;;;;;;;9.68;5.65;;;5.00;99.90;;;;;;5044951;28;20207;-67
2024/03/26 05:06:13;;;;;;;14.40;6.13;;;4.90;99.90;;;;;;5043219;28;20183;-67
2024/03/26 05:08:38;;;;;;;17.95;6.68;;;5.00;99.90;;;;;;5042045;28;20183;-67
2024/03/26 05:11:04;;;;;;;17.42;6.07;;;4.90;99.90;;;;;;5044151;28;20195;-66
2024/03/26 05:13:30;;;;;;;11.13;6.03;;;4.90;99.90;;;;;;5045172;28;20195;-66
2024/03/26 05:15:58;;;;;;;14.60;5.95;;;4.90;99.90;;;;;;5041205;28;21250;-66
2024/03/26 05:18:24;;;;;;;14.05;5.88;;;4.90;99.90;;;;;;5044530;28;20241;-67
2024/03/26 05:20:49;;;;;;;11.57;5.90;;;4.80;99.90;;;;;;5044889;28;20195;-67
2024/03/26 05:23:15;;;;;;;13.48;5.78;;;4.80;99.90;;;;;;5043574;28;20635;-67
2024/03/26 05:25:41;;;;;;;12.93;5.93;;;4.80;99.90;;;;;;5043839;28;20194;-67
2024/03/26 05:28:07;;;;;;;16.67;6.60;;;4.80;99.90;;;;;;5043016;28;20483;-67
2024/03/26 05:30:32;;;;;;;14.25;5.75;;;4.90;99.90;;;;;;5043367;28;20184;-67
2024/03/26 05:32:58;;;;;;;14.82;5.78;;;4.90;99.90;;;;;;5043608;28;20187;-68
2024/03/26 05:35:24;;;;;;;16.70;5.90;;;4.90;99.90;;;;;;5042884;28;20275;-68
2024/03/26 05:37:49;;;;;;;9.95;5.97;;;4.90;99.90;;;;;;5042922;28;20217;-68
2024/03/26 05:40:16;;;;;;;14.10;5.70;;;4.90;99.90;;;;;;5042203;28;20296;-66
2024/03/26 05:42:42;;;;;;;11.77;5.15;;;5.00;99.90;;;;;;5043281;28;20770;-66
2024/03/26 05:45:08;;;;;;;14.40;5.90;;;5.00;99.90;;;;;;5042840;28;20298;-68
2024/03/26 05:47:34;;;;;;;15.88;5.63;;;5.00;99.90;;;;;;5040676;28;20191;-69
2024/03/26 05:49:59;;;;;;;13.23;5.63;;;5.00;99.90;;;;;;5043171;28;20248;-71
2024/03/26 05:52:25;;;;;;;11.93;5.70;;;5.00;99.90;;;;;;5043974;28;20253;-68
2024/03/26 05:54:51;;;;;;;9.85;6.22;;;5.00;99.90;;;;;;5043423;28;20232;-69
2024/03/26 05:57:17;;;;;;;11.57;5.47;;;5.00;99.90;;;;;;5042902;28;20365;-69
2024/03/26 05:59:42;;;;;;;10.27;5.38;;;5.00;99.90;;;;;;5041903;28;20203;-73
2024/03/26 06:02:08;;;;;;;12.63;5.65;;;5.00;99.90;;;;;;5042646;28;20199;-73
2024/03/26 06:04:34;;;;;;;13.52;5.53;;;5.00;99.90;;;;;;5042362;28;20214;-68
2024/03/26 06:06:59;;;;;;;13.85;5.78;;;5.00;99.90;;;;;;5042671;28;20733;-67
2024/03/26 06:09:25;;;;;;;12.75;5.82;;;5.10;99.90;;;;;;5041714;28;20262;-69
2024/03/26 06:11:51;;;;;;;13.63;5.47;;;5.10;99.90;;;;;;5043029;28;20625;-70
2024/03/26 06:14:17;;;;;;;13.00;5.65;;;5.10;99.90;;;;;;5042728;28;20254;-68
2024/03/26 06:16:43;;;;;;;13.07;5.22;;;5.10;99.90;;;;;;5042738;28;20191;-68
2024/03/26 06:19:08;;;;;;;10.00;5.07;;;5.10;99.90;;;;;;5042532;28;20221;-70
2024/03/26 06:21:34;;;;;;;14.32;5.22;;;5.10;99.90;;;;;;5042076;28;20918;-67
2024/03/26 06:24:00;;;;;;;20.73;6.32;;;5.10;99.90;;;;;;5042063;28;20218;-70
2024/03/26 06:26:25;;;;;;;15.13;5.10;;;5.20;99.90;;;;;;5042430;28;20195;-73
2024/03/26 06:28:51;;;;;;;13.70;4.90;;;5.20;99.90;;;;;;5028175;28;20183;-70
2024/03/26 06:31:17;;;;;;;12.93;5.30;;;5.30;99.90;;;;;;5041407;28;20198;-68
2024/03/26 06:33:42;;;;;;;14.05;5.47;;;5.30;99.90;;;;;;5042302;28;20199;-71
2024/03/26 06:36:08;;;;;;;15.85;5.72;;;5.30;99.90;;;;;;5039837;28;20203;-68
2024/03/26 06:38:34;;;;;;;12.27;5.05;;;5.40;99.90;;;;;;5041557;28;20191;-68
2024/03/26 06:41:01;;;;;;;10.40;5.03;;;5.40;99.90;;;;;;5042653;28;20190;-68
2024/03/26 06:43:26;;;;;;;8.95;5.10;;;5.50;99.90;;;;;;5042175;28;20212;-66
2024/03/26 06:45:53;;;;;;;11.45;5.28;;;5.50;99.90;;;;;;5041876;28;20183;-67
2024/03/26 06:48:19;;;;;;;13.43;5.05;;;5.50;99.90;;;;;;5041605;28;20231;-68
2024/03/26 06:50:45;;;;;;;10.27;4.78;;;5.60;99.90;;;;;;5040635;28;20215;-66
2024/03/26 06:53:10;;;;;;;10.90;5.15;;;5.60;99.90;;;;;;5041860;28;20195;-67
2024/03/26 06:55:37;;;;;;;8.80;5.05;;;5.70;99.90;;;;;;5042323;28;20192;-67
2024/03/26 06:58:03;;;;;;;8.05;4.30;;;5.70;99.90;;;;;;5041267;28;20222;-67
2024/03/26 07:00:28;;;;;;;10.43;4.70;;;5.80;99.90;;;;;;5041959;28;20210;-72
2024/03/26 07:02:57;;;;;;;14.98;5.15;;;5.90;99.90;;;;;;5041237;28;20195;-66
2024/03/26 07:05:25;;;;;;;10.98;4.85;;;6.00;99.90;;;;;;5041593;28;20298;-69
2024/03/26 07:07:51;;;;;;;10.10;4.97;;;6.10;99.90;;;;;;5041854;28;20241;-68
2024/03/26 07:10:17;;;;;;;12.90;5.35;;;6.20;99.90;;;;;;5041122;28;20191;-76
2024/03/26 07:12:43;;;;;;;10.05;5.20;;;6.30;99.90;;;;;;5039511;28;20191;-73
2024/03/26 07:15:10;;;;;;;10.07;5.80;;;6.40;99.90;;;;;;5040142;28;20199;-72
2024/03/26 07:17:38;;;;;;;8.10;4.78;;;6.50;99.90;;;;;;5040930;28;20711;-68
2024/03/26 07:20:05;;;;;;;14.43;5.03;;;6.50;99.90;;;;;;5041256;28;20234;-70
2024/03/26 07:22:31;;;;;;;14.38;5.40;;;6.60;99.90;;;;;;5040834;28;20183;-70
2024/03/26 07:24:57;;;;;;;12.60;5.43;;;6.70;99.90;;;;;;5040214;28;20238;-67
2024/03/26 07:27:22;;;;;;;13.38;5.53;;;6.90;99.90;;;;;;5041327;28;20218;-69
2024/03/26 07:29:48;;;;;;;11.98;5.22;;;7.00;99.90;;;;;;5024014;28;20651;-69
2024/03/26 07:32:14;;;;;;;10.73;5.10;;;7.10;99.90;;;;;;5040651;28;20183;-68
2024/03/26 07:34:40;;;;;;;11.90;5.40;;;7.20;99.90;;;;;;5056466;28;20198;-69
2024/03/26 07:37:06;;;;;;;11.35;4.97;;;7.30;99.90;;;;;;5022766;28;20602;-67
2024/03/26 07:39:31;;;;;;;24.75;5.35;;;7.40;99.90;;;;;;5041414;28;20217;-68
2024/03/26 07:41:57;;;;;;;11.15;4.60;;;7.50;99.90;;;;;;5056682;28;20195;-69
2024/03/26 07:44:23;;;;;;;11.98;5.05;;;7.60;99.90;;;;;;5039805;28;20210;-69
2024/03/26 07:46:49;;;;;;;11.43;4.70;;;7.80;99.90;;;;;;5040169;28;20283;-68
2024/03/26 07:49:14;;;;;;;8.70;4.60;;;7.80;99.90;;;;;;5040522;28;20175;-70
2024/03/26 07:51:40;;;;;;;7.97;4.55;;;8.00;99.90;;;;;;5041118;28;20262;-69
2024/03/26 07:54:06;;;;;;;6.97;4.00;;;8.10;99.90;;;;;;5040863;28;20203;-67
2024/03/26 07:56:32;;;;;;;11.43;4.80;;;8.20;99.90;;;;;;5041215;28;20273;-69
2024/03/26 07:58:58;;;;;;;9.77;4.60;;;8.30;99.90;;;;;;5039906;28;20264;-68
2024/03/26 08:01:24;;;;;;;13.02;4.50;;;8.30;99.90;;;;;;5040797;28;20195;-69
2024/03/26 08:03:50;;;;;;;7.78;4.32;;;8.40;99.90;;;;;;5044174;28;20207;-67
2024/03/26 08:06:16;;;;;;;11.15;4.70;;;8.40;99.90;;;;;;5045157;28;20222;-68
2024/03/26 08:08:42;;;;;;;9.73;4.85;;;8.50;99.90;;;;;;5044409;28;20615;-68
2024/03/26 08:11:12;;;;;;;10.45;5.00;;;8.50;99.90;;;;;;5044460;28;20337;-68
2024/03/26 08:13:39;;;;;;;7.82;4.57;;;8.60;99.90;;;;;;5043593;28;20197;-64
2024/03/26 08:16:06;;;;;;;19.52;4.80;;;8.60;99.90;;;;;;5044384;28;20207;-69
2024/03/26 08:18:32;;;;;;;8.45;4.45;;;8.60;99.90;;;;;;5043964;28;20284;-67
2024/03/26 08:20:59;;;;;;;9.43;4.38;;;8.60;99.90;;;;;;5044180;28;20659;-66
2024/03/26 08:23:25;;;;;;;9.63;4.78;;;8.60;99.90;;;;;;5044423;28;20657;-67
2024/03/26 08:25:51;;;;;;;9.20;4.80;;;8.70;99.90;;;;;;5044854;28;20226;-68
2024/03/26 08:28:16;;;;;;;9.77;5.28;;;8.70;99.90;;;;;;5044930;28;20191;-68
2024/03/26 08:30:42;;;;;;;12.75;5.05;;;8.70;99.90;;;;;;5043628;28;20226;-66
2024/03/26 08:33:08;;;;;;;10.05;5.00;;;8.70;99.90;;;;;;5044149;28;20563;-74
2024/03/26 08:35:40;;;;;;;10.63;5.20;;;8.70;99.90;;;;;;5043942;28;20183;-68
2024/03/26 08:38:06;;;;;;;10.75;4.88;;;8.80;99.90;;;;;;5044279;28;20544;-69
2024/03/26 08:40:32;;;;;;;9.93;4.82;;;8.80;99.90;;;;;;5043630;28;20722;-70
2024/03/26 08:42:58;;;;;;;11.70;4.97;;;8.80;99.90;;;;;;5044243;28;20283;-68
2024/03/26 08:45:24;;;;;;;11.82;4.90;;;8.90;99.90;;;;;;5044018;28;20301;-67
2024/03/26 08:47:51;;;;;;;13.18;4.82;;;9.00;99.90;;;;;;5042107;28;20540;-68
2024/03/26 08:50:17;;;;;;;7.20;4.15;;;9.00;99.90;;;;;;5043628;28;20179;-70
2024/03/26 08:52:43;;;;;;;10.98;4.32;;;9.10;99.90;;;;;;5043878;28;20449;-67
2024/03/26 08:55:09;;;;;;;9.60;4.40;;;9.10;99.90;;;;;;5042311;28;20194;-68
2024/03/26 08:57:35;;;;;;;8.43;4.78;;;9.20;99.90;;;;;;5044130;28;20202;-67
2024/03/26 09:00:03;;;;;;;10.73;4.35;;;9.30;99.90;;;;;;5043462;28;20179;-70
2024/03/26 09:02:29;;;;;;;11.77;4.30;;;9.30;99.90;;;;;;5043187;28;21251;-69
2024/03/26 09:04:55;;;;;;;11.43;4.40;;;9.40;99.90;;;;;;5043772;28;20264;-67
2024/03/26 09:07:21;;;;;;;9.13;4.50;;;9.40;99.90;;;;;;5043612;28;20210;-68
2024/03/26 09:09:47;;;;;;;9.38;4.43;;;9.40;99.90;;;;;;5043454;28;20190;-66
2024/03/26 09:12:12;;;;;;;8.15;4.15;;;9.50;99.90;;;;;;5043363;28;20215;-65
2024/03/26 09:14:38;;;;;;;7.40;3.70;;;9.60;99.90;;;;;;5042585;28;20202;-68
2024/03/26 09:17:04;;;;;;;8.43;4.72;;;9.70;99.90;;;;;;5043056;28;20226;-67
2024/03/26 09:19:30;;;;;;;8.88;4.03;;;9.80;99.90;;;;;;5043104;28;20202;-65
2024/03/26 09:21:57;;;;;;;10.50;5.75;;;9.80;99.90;;;;;;5043343;28;20793;-69
2024/03/26 09:24:22;;;;;;;8.82;4.35;;;9.80;99.90;;;;;;5043361;28;20230;-68
2024/03/26 09:26:48;;;;;;;8.15;4.00;;;9.90;99.90;;;;;;5043150;28;20187;-66
2024/03/26 09:29:14;;;;;;;7.78;4.10;;;10.10;99.90;;;;;;5042929;28;20179;-65
2024/03/26 09:31:40;;;;;;;7.97;3.92;;;10.20;99.90;;;;;;5042829;28;20195;-67
2024/03/26 09:34:06;;;;;;;7.50;4.68;;;10.30;99.90;;;;;;5025634;28;20552;-65
2024/03/26 09:36:32;;;;;;;7.47;4.35;;;10.40;99.90;;;;;;5042894;28;20223;-66
2024/03/26 09:38:58;;;;;;;11.73;5.45;;;10.50;99.90;;;;;;5043101;28;20191;-65
2024/03/26 09:41:28;;;;;;;10.45;4.63;;;10.50;99.90;;;;;;5042558;28;20206;-66
2024/03/26 09:43:54;;;;;;;8.77;4.13;;;10.60;99.90;;;;;;5041587;28;20709;-69
2024/03/26 09:46:22;;;;;;;9.75;4.40;;;10.70;99.90;;;;;;5042861;28;20187;-68
2024/03/26 09:48:48;;;;;;;7.43;4.03;;;10.80;99.90;;;;;;5042341;28;20202;-67
2024/03/26 09:51:14;;;;;;;11.68;4.78;;;11.00;99.90;;;;;;5042157;28;20191;-65
2024/03/26 09:53:43;;;;;;;11.93;4.78;;;11.10;99.90;;;;;;5041038;28;20218;-66
2024/03/26 09:56:10;;;;;;;9.35;4.63;;;11.20;99.90;;;;;;5042784;28;20199;-66
2024/03/26 09:58:36;;;;;;;8.48;4.55;;;11.20;99.90;;;;;;5042584;28;20209;-69
2024/03/26 10:01:03;;;;;;;9.65;4.13;;;11.30;99.90;;;;;;5041993;28;20324;-67
2024/03/26 10:03:32;;;;;;;7.00;4.13;;;11.30;99.90;;;;;;5041499;28;20215;-67
2024/03/26 10:05:59;;;;;;;9.32;4.60;;;11.40;99.90;;;;;;5042565;28;20191;-66
2024/03/26 10:08:24;;;;;;;6.80;3.92;;;11.50;99.90;;;;;;5041817;28;22308;-66
2024/03/26 10:10:50;;;;;;;9.90;4.43;;;11.60;99.90;;;;;;5042661;28;20211;-70
2024/03/26 10:13:16;;;;;;;6.90;4.53;;;11.70;99.90;;;;;;5041864;28;20187;-67
2024/03/26 10:15:43;;;;;;;9.32;4.40;;;11.70;99.90;;;;;;5041053;28;20621;-68
2024/03/26 10:18:09;;;;;;;12.43;4.85;;;11.70;99.90;;;;;;5042300;28;20281;-66
2024/03/26 10:20:35;;;;;;;9.75;4.28;;;11.70;99.90;;;;;;5042145;28;20195;-69
2024/03/26 10:23:06;;;;;;;9.40;4.20;;;11.80;99.90;;;;;;5040840;28;20215;-68
2024/03/26 10:25:32;;;;;;;10.60;4.53;;;11.70;99.90;;;;;;5041952;28;20191;-67
2024/03/26 10:28:00;;;;;;;6.50;4.15;;;11.80;99.90;;;;;;5040873;28;20257;-67
2024/03/26 10:30:26;;;;;;;12.80;4.20;;;11.80;99.90;;;;;;5056400;28;20195;-65
2024/03/26 10:32:58;;;;;;;9.43;4.82;;;11.90;99.90;;;;;;5040766;28;20195;-66
2024/03/26 10:35:25;;;;;;;12.07;4.72;;;11.80;99.90;;;;;;5041760;28;20226;-68
2024/03/26 10:37:55;;;;;;;6.80;4.03;;;11.80;99.90;;;;;;5042091;28;20209;-66
2024/03/26 10:40:28;;;;;;;18.38;8.48;;;12.00;99.90;;;;;;5041861;28;20615;-68
2024/03/26 10:42:58;;;;;;;8.27;4.10;;;11.90;99.90;;;;;;5041878;28;20190;-65
2024/03/26 10:45:24;;;;;;;8.77;4.63;;;11.90;99.90;;;;;;5040163;28;20306;-66
2024/03/26 10:47:52;;;;;;;7.97;4.30;;;11.90;99.90;;;;;;5041506;28;20670;-69
2024/03/26 10:50:18;;;;;;;10.18;4.40;;;11.90;99.90;;;;;;5041036;28;20218;-68
2024/03/26 10:52:46;;;;;;;8.55;4.40;;;12.00;99.90;;;;;;5057017;28;20245;-68
2024/03/26 10:55:12;;;;;;;6.65;4.30;;;12.00;99.90;;;;;;5041525;28;20199;-67
2024/03/26 10:57:40;;;;;;;7.35;4.15;;;12.00;99.90;;;;;;5042047;28;20182;-67
2024/03/26 11:00:10;;;;;;;6.10;4.15;;;12.00;99.90;;;;;;5041667;28;20195;-68
2024/03/26 11:02:40;;;;;;;9.88;4.25;;;12.10;99.90;;;;;;5041296;28;20199;-66
2024/03/26 11:05:08;;;;;;;9.40;4.15;;;12.10;99.90;;;;;;5041249;28;20310;-69
2024/03/26 11:07:37;;;;;;;6.43;3.90;;;12.20;99.90;;;;;;5041586;28;20616;-69
2024/03/26 11:10:09;;;;;;;7.47;4.13;;;12.20;99.90;;;;;;5041125;28;21197;-67
2024/03/26 11:12:36;;;;;;;8.98;4.20;;;12.30;99.90;;;;;;5041540;28;20188;-66
2024/03/26 11:15:11;;;;;;;7.82;4.10;;;12.40;99.90;;;;;;5041237;28;20187;-66
2024/03/26 11:18:00;;;;;;;9.93;5.80;;;12.50;99.90;;;;;;5041377;28;21443;-66
2024/03/26 11:20:30;;;;;;;10.00;4.75;;;12.60;99.90;;;;;;5041804;28;20297;-67
2024/03/26 11:23:04;;;;;;;8.80;4.70;;;12.70;99.90;;;;;;5041183;28;20187;-67
2024/03/26 11:25:31;;;;;;;12.50;4.85;;;12.70;99.90;;;;;;5041093;28;20214;-67
2024/03/26 11:27:59;;;;;;;7.97;4.60;;;12.80;99.90;;;;;;5056104;28;20183;-67
2024/03/26 11:30:28;;;;;;;6.75;4.65;;;12.70;99.90;;;;;;5040930;28;20552;-68
2024/03/26 11:32:55;;;;;;;7.57;4.20;;;12.70;99.90;;;;;;5041057;28;20615;-67
2024/03/26 11:35:25;;;;;;;7.53;4.43;;;12.70;99.90;;;;;;5040941;28;20214;-67
2024/03/26 11:37:53;;;;;;;8.27;3.95;;;12.70;99.90;;;;;;5038732;28;20199;-70
2024/03/26 11:40:19;;;;;;;7.20;4.60;;;12.70;99.90;;;;;;5055595;28;20207;-68
2024/03/26 11:42:47;;;;;;;6.65;4.63;;;12.70;99.90;;;;;;5040519;28;20199;-69
2024/03/26 11:45:14;;;;;;;7.13;4.80;;;12.80;99.90;;;;;;5041316;28;20364;-66
2024/03/26 11:47:40;;;;;;;6.72;4.15;;;12.80;99.90;;;;;;5040911;28;20174;-69
2024/03/26 11:50:07;;;;;;;7.72;4.90;;;12.80;99.90;;;;;;5039570;28;20774;-67
2024/03/26 11:52:33;;;;;;;7.22;4.50;;;12.80;99.90;;;;;;5056333;28;20187;-67
2024/03/26 11:55:01;;;;;;;8.35;5.28;;;12.80;99.90;;;;;;5041060;28;21691;-66
2024/03/26 11:57:28;;;;;;;8.68;4.22;;;12.80;99.90;;;;;;5040635;28;20301;-68
2024/03/26 11:59:54;;;;;;;7.72;4.05;;;12.80;99.90;;;;;;5040840;28;20191;-70
2024/03/26 12:02:19;;;;;;;8.15;4.43;;;12.80;99.90;;;;;;5056411;28;20205;-68
2024/03/26 12:04:45;;;;;;;9.40;4.38;;;12.90;99.90;;;;;;5041162;28;20219;-65
2024/03/26 12:07:20;;;;;;;14.45;6.50;;;12.90;99.90;;;;;;5038720;28;20192;-66
2024/03/26 12:09:46;;;;;;;6.32;4.00;;;12.90;99.90;;;;;;5040445;28;21660;-68
2024/03/26 12:12:13;;;;;;;7.30;4.50;;;13.00;99.90;;;;;;5040684;28;20517;-66
2024/03/26 12:14:39;;;;;;;6.72;4.07;;;13.10;99.90;;;;;;5041305;28;20207;-67
2024/03/26 12:17:06;;;;;;;6.97;4.03;;;13.20;99.90;;;;;;5039067;28;20230;-68
2024/03/26 12:19:32;;;;;;;9.93;4.43;;;13.20;99.90;;;;;;5040086;28;20222;-69
2024/03/26 12:22:05;;;;;;;7.63;4.40;;;13.20;99.90;;;;;;5039255;28;20195;-66
2024/03/26 12:24:31;;;;;;;7.75;4.40;;;13.20;99.90;;;;;;5040691;28;20226;-66
2024/03/26 12:26:56;;;;;;;8.82;4.85;;;13.30;99.90;;;;;;5040705;28;20187;-66
2024/03/26 12:29:22;;;;;;;10.43;5.10;;;13.30;99.90;;;;;;5039892;28;20726;-66
2024/03/26 12:31:48;;;;;;;8.82;4.35;;;13.40;99.90;;;;;;5040490;28;20195;-67
2024/03/26 12:34:14;;;;;;;7.32;4.82;;;13.40;99.90;;;;;;5055957;28;20199;-65
2024/03/26 12:36:40;;;;;;;8.73;4.28;;;13.50;99.90;;;;;;5056090;28;20187;-68
2024/03/26 12:39:10;;;;;;;6.22;4.38;;;13.50;99.90;;;;;;5038905;28;20214;-70
2024/03/26 12:41:36;;;;;;;9.68;4.68;;;13.50;99.90;;;;;;5028049;28;20196;-68
2024/03/26 12:44:05;;;;;;;8.80;4.82;;;13.50;99.90;;;;;;5039716;28;20215;-68